createdAt,value
2018-12-19T11:19:11.923Z,10.40
2018-12-19T11:21:44.487Z,9.75
2018-12-19T11:24:17.222Z,9.18
2018-12-19T11:26:50.290Z,9.90
2018-12-19T11:29:22.893Z,9.15
2018-12-19T11:31:56.504Z,8.90
2018-12-19T11:34:29.236Z,9.18
2018-12-19T11:37:01.826Z,9.73
2018-12-19T11:39:34.458Z,9.53
2018-12-19T11:42:07.906Z,10.00
2018-12-19T11:44:40.477Z,9.73
2018-12-19T11:47:14.078Z,10.20
2018-12-19T11:49:47.195Z,9.75
2018-12-19T11:52:19.821Z,9.63
2018-12-19T11:54:52.455Z,9.20
2018-12-19T11:57:25.040Z,10.13
2018-12-19T11:59:57.988Z,9.20
2018-12-19T12:02:30.567Z,9.35
2018-12-19T12:05:03.897Z,10.93
2018-12-19T12:07:38.764Z,10.03
2018-12-19T12:10:11.484Z,9.18
2018-12-19T12:12:44.074Z,10.30
2018-12-19T12:15:16.708Z,9.00
2018-12-19T12:17:49.325Z,10.10
2018-12-19T12:20:21.898Z,10.10
2018-12-19T12:22:54.469Z,10.23
2018-12-19T12:25:27.093Z,9.30
2018-12-19T12:27:59.661Z,9.48
2018-12-19T12:30:32.233Z,8.85
2018-12-19T12:33:05.349Z,9.08
2018-12-19T12:35:38.393Z,8.80
2018-12-19T12:38:10.996Z,6.42
2018-12-19T12:40:43.547Z,7.33
2018-12-19T12:43:16.242Z,7.65
2018-12-19T12:45:48.872Z,6.70
2018-12-19T12:48:21.431Z,7.05
2018-12-19T12:50:53.989Z,7.65
2018-12-19T12:53:27.316Z,6.72
2018-12-19T12:55:59.984Z,7.12
2018-12-19T12:58:32.513Z,5.75
2018-12-19T13:01:05.186Z,6.47
2018-12-19T13:03:37.798Z,6.65
2018-12-19T13:06:10.414Z,6.15
2018-12-19T13:08:44.163Z,6.03
2018-12-19T13:11:16.784Z,6.17
2018-12-19T13:13:49.338Z,5.80
2018-12-19T13:16:22.164Z,6.20
2018-12-19T13:18:54.830Z,6.28
2018-12-19T13:21:27.390Z,5.80
2018-12-19T13:24:01.035Z,6.62
2018-12-19T13:26:33.727Z,5.75
2018-12-19T13:29:06.530Z,5.35
2018-12-19T13:31:39.150Z,5.65
2018-12-19T13:34:11.722Z,5.60
2018-12-19T13:36:44.398Z,5.70
2018-12-19T13:39:16.971Z,5.60
2018-12-19T13:41:50.232Z,5.33
2018-12-19T13:44:22.933Z,5.67
2018-12-19T13:46:55.634Z,5.80
2018-12-19T13:49:28.225Z,5.53
2018-12-19T13:52:00.765Z,5.25
2018-12-19T13:54:35.050Z,5.25
2018-12-19T13:57:09.328Z,5.65
2018-12-19T13:59:41.926Z,4.85
2018-12-19T14:02:14.498Z,5.35
2018-12-19T14:04:47.784Z,6.65
2018-12-19T14:07:21.103Z,5.30
2018-12-19T14:09:54.900Z,5.42
2018-12-19T14:12:29.344Z,5.87
2018-12-19T14:16:31.754Z,5.65
2018-12-19T14:19:07.284Z,5.28
2018-12-19T14:21:39.891Z,5.20
2018-12-19T14:24:12.442Z,5.28
2018-12-19T14:26:45.150Z,5.08
2018-12-19T14:29:18.972Z,4.87
2018-12-19T14:31:55.579Z,4.67
2018-12-19T14:34:29.202Z,4.85
2018-12-19T14:37:01.876Z,4.47
2018-12-19T14:39:35.582Z,4.30
2018-12-19T14:42:18.978Z,3.98
2018-12-19T14:44:56.047Z,4.33
2018-12-19T14:47:34.587Z,4.05
2018-12-19T14:50:07.941Z,4.75
2018-12-19T14:52:40.528Z,5.42
2018-12-19T14:55:13.138Z,5.42
2018-12-19T14:57:45.948Z,4.95
2018-12-19T15:00:18.837Z,4.42
2018-12-19T15:02:55.715Z,4.90
2018-12-19T15:05:28.244Z,5.53
2018-12-19T15:08:00.939Z,5.97
2018-12-19T15:10:33.615Z,4.65
2018-12-19T15:13:06.264Z,4.65
2018-12-19T15:15:38.894Z,4.28
2018-12-19T15:18:11.906Z,4.60
2018-12-19T15:20:44.554Z,4.62
2018-12-19T15:23:19.011Z,4.47
2018-12-19T15:25:53.775Z,4.53
2018-12-19T15:28:33.621Z,4.15
2018-12-19T15:31:07.791Z,4.78
2018-12-19T15:33:41.336Z,4.60
2018-12-19T15:36:15.553Z,4.92
2018-12-19T15:38:48.291Z,5.42
2018-12-19T15:41:23.736Z,10.10
2018-12-19T15:43:57.341Z,11.53
2018-12-19T15:46:36.517Z,11.80
2018-12-19T15:49:09.969Z,12.35
2018-12-19T15:51:45.009Z,12.47
2018-12-19T15:54:21.763Z,13.90
2018-12-19T15:56:55.079Z,13.83
2018-12-19T15:59:28.344Z,13.32
2018-12-19T16:02:01.032Z,13.68
2018-12-19T16:04:34.238Z,15.23
2018-12-19T16:07:08.975Z,14.87
2018-12-19T16:09:43.068Z,13.78
2018-12-19T16:12:23.038Z,14.45
2018-12-19T16:15:03.008Z,14.10
2018-12-19T16:17:35.625Z,12.78
2018-12-19T16:20:15.120Z,13.85
2018-12-19T16:22:48.061Z,14.05
2018-12-19T16:25:20.727Z,13.90
2018-12-19T16:27:56.430Z,14.47
2018-12-19T16:30:31.264Z,13.28
2018-12-19T16:33:05.155Z,16.02
2018-12-19T16:35:41.405Z,13.75
2018-12-19T16:38:18.410Z,13.08
2018-12-19T16:40:55.639Z,13.50
2018-12-19T16:43:32.672Z,14.13
2018-12-19T16:46:05.442Z,13.68
2018-12-19T16:48:39.527Z,14.45
2018-12-19T16:51:14.233Z,12.40
2018-12-19T16:53:49.584Z,12.63
2018-12-19T16:59:30.489Z,13.70
2018-12-19T17:02:05.604Z,14.60
2018-12-19T17:04:39.461Z,14.28
2018-12-19T17:07:12.626Z,13.80
2018-12-19T17:09:45.339Z,14.13
2018-12-19T17:12:18.840Z,15.50
2018-12-19T17:14:51.479Z,16.15
2018-12-19T17:17:24.140Z,15.45
2018-12-19T17:19:57.525Z,14.85
2018-12-19T17:22:30.211Z,14.98
2018-12-19T17:25:03.050Z,15.80
2018-12-19T17:27:37.009Z,16.40
2018-12-19T17:30:11.134Z,15.78
2018-12-19T17:32:45.561Z,14.50
2018-12-19T17:35:19.189Z,14.80
2018-12-19T17:37:52.572Z,15.30
2018-12-19T17:40:25.460Z,15.80
2018-12-19T17:42:59.511Z,15.40
2018-12-19T17:45:32.923Z,12.60
2018-12-19T17:48:06.009Z,14.15
2018-12-19T17:50:39.203Z,16.75
2018-12-19T17:53:12.115Z,15.60
2018-12-19T17:55:49.218Z,15.72
2018-12-19T17:58:26.434Z,15.85
2018-12-19T18:01:07.552Z,16.20
2018-12-19T18:03:43.560Z,14.70
2018-12-19T18:06:18.760Z,14.20
2018-12-19T18:08:52.242Z,15.43
2018-12-19T18:11:27.615Z,14.28
2018-12-19T18:14:06.689Z,15.30
2018-12-19T18:16:40.651Z,14.63
2018-12-19T18:19:23.108Z,14.10
2018-12-19T18:21:51.285Z,15.13
2018-12-19T18:24:26.735Z,13.88
2018-12-19T18:27:00.507Z,15.80
2018-12-19T18:29:33.432Z,15.40
2018-12-19T18:32:06.187Z,15.23
2018-12-19T18:34:38.799Z,14.03
2018-12-19T18:37:11.474Z,15.35
2018-12-19T18:39:43.990Z,14.85
2018-12-19T18:42:17.693Z,14.63
2018-12-19T18:44:50.286Z,15.55
2018-12-19T18:47:22.966Z,12.98
2018-12-19T18:49:55.601Z,13.15
2018-12-19T18:52:28.246Z,14.65
2018-12-19T18:55:00.824Z,15.65
2018-12-19T18:57:34.362Z,14.73
2018-12-19T19:00:08.295Z,14.70
2018-12-19T19:02:42.034Z,15.50
2018-12-19T19:05:16.943Z,14.68
2018-12-19T19:07:50.247Z,14.35
2018-12-19T19:10:22.822Z,14.85
2018-12-19T19:12:56.413Z,13.80
2018-12-19T19:15:31.139Z,13.90
2018-12-19T19:18:04.357Z,12.85
2018-12-19T19:20:38.003Z,13.20
2018-12-19T19:23:12.457Z,13.00
2018-12-19T19:25:48.885Z,13.25
2018-12-19T19:28:29.503Z,14.18
2018-12-19T19:31:03.862Z,11.30
2018-12-19T19:33:40.117Z,12.37
2018-12-19T19:36:13.579Z,12.45
2018-12-19T19:38:46.729Z,12.95
2018-12-19T19:41:21.853Z,11.28
2018-12-19T19:44:01.204Z,11.18
2018-12-19T19:46:35.256Z,11.93
2018-12-19T19:49:11.640Z,11.68
2018-12-19T19:51:44.806Z,11.33
2018-12-19T19:54:17.548Z,11.63
2018-12-19T19:56:51.288Z,11.95
2018-12-19T19:59:24.084Z,11.75
2018-12-19T20:01:59.509Z,10.95
2018-12-19T20:04:36.792Z,12.40
2018-12-19T20:07:09.863Z,11.50
2018-12-19T20:09:44.297Z,11.95
2018-12-19T20:12:17.134Z,12.05
2018-12-19T20:14:49.835Z,12.18
2018-12-19T20:17:27.368Z,12.50
2018-12-19T20:20:00.436Z,13.25
2018-12-19T20:22:33.120Z,15.48
2018-12-19T20:25:10.308Z,14.50
2018-12-19T20:27:45.371Z,14.70
2018-12-19T20:30:19.286Z,13.80
2018-12-19T20:32:52.057Z,13.30
2018-12-19T20:35:24.973Z,14.10
2018-12-19T20:37:59.344Z,13.40
2018-12-19T20:40:32.870Z,13.62
2018-12-19T20:43:06.755Z,14.70
2018-12-19T20:45:39.942Z,13.85
2018-12-19T20:48:13.394Z,14.05
2018-12-19T20:51:04.559Z,13.40
2018-12-19T20:53:38.952Z,14.23
2018-12-19T20:56:12.603Z,13.88
2018-12-19T20:58:45.417Z,15.32
2018-12-19T21:01:18.728Z,13.93
2018-12-19T21:03:51.844Z,18.10
2018-12-19T21:06:26.481Z,16.93
2018-12-19T21:09:01.330Z,14.43
2018-12-19T21:11:40.830Z,16.10
2018-12-19T21:14:19.613Z,14.90
2018-12-19T21:17:01.098Z,16.62
2018-12-19T21:19:36.047Z,15.30
2018-12-19T21:22:12.767Z,16.42
2018-12-19T21:26:55.596Z,15.10
2018-12-19T21:29:33.450Z,15.65
2018-12-19T21:32:09.970Z,15.83
2018-12-19T21:34:46.094Z,17.48
2018-12-19T21:37:21.512Z,17.25
2018-12-19T21:39:54.772Z,16.40
2018-12-19T21:42:28.859Z,17.10
2018-12-19T21:45:03.685Z,18.00
2018-12-19T21:47:41.749Z,18.35
2018-12-19T21:50:19.187Z,17.77
2018-12-19T21:52:56.088Z,17.70
2018-12-19T21:55:31.673Z,18.65
2018-12-19T21:58:04.351Z,17.20
2018-12-19T22:00:39.404Z,18.25
2018-12-19T22:03:16.085Z,18.05
2018-12-19T22:05:51.858Z,18.15
2018-12-19T22:08:24.590Z,17.90
2018-12-19T22:10:58.240Z,17.67
2018-12-19T22:13:35.006Z,18.35
2018-12-19T22:16:15.530Z,17.30
2018-12-19T22:18:48.573Z,18.82
2018-12-19T22:21:21.456Z,17.40
2018-12-19T22:23:54.245Z,17.87
2018-12-19T22:26:30.976Z,17.45
2018-12-19T22:29:03.775Z,18.20
2018-12-19T22:31:36.452Z,17.27
2018-12-19T22:34:09.188Z,18.40
2018-12-19T22:36:41.854Z,19.48
2018-12-19T22:39:17.676Z,19.45
2018-12-19T22:41:50.378Z,19.73
2018-12-19T22:44:23.822Z,19.12
2018-12-19T22:46:57.720Z,18.55
2018-12-19T22:49:30.462Z,20.70
2018-12-19T22:52:03.170Z,19.75
2018-12-19T22:54:35.918Z,20.80
2018-12-19T22:57:08.647Z,19.70
2018-12-19T23:02:54.974Z,19.90
2018-12-19T23:05:33.568Z,21.30
2018-12-19T23:08:06.577Z,19.75
2018-12-19T23:10:39.300Z,19.87
2018-12-19T23:13:12.048Z,21.02
2018-12-19T23:15:46.712Z,19.80
2018-12-19T23:18:27.198Z,20.40
2018-12-19T23:21:06.162Z,20.82
2018-12-19T23:23:45.877Z,21.90
2018-12-19T23:26:20.862Z,20.17
2018-12-19T23:29:01.254Z,19.23
2018-12-19T23:31:35.942Z,19.92
2018-12-19T23:34:09.422Z,21.42
2018-12-19T23:36:42.232Z,19.48
2018-12-19T23:39:14.852Z,19.57
2018-12-19T23:41:48.636Z,20.23
2018-12-19T23:44:27.651Z,21.12
2018-12-19T23:47:00.503Z,20.08
2018-12-19T23:52:40.944Z,21.10
2018-12-19T23:55:13.603Z,21.05
2018-12-19T23:57:46.274Z,21.37
